Time;durP1;ratioP1;P1;durP2;ratioP2;P2;SDS_P1;SDS_P2;PMS_P1;PMS_P2;Temp;Humidity;BMP_temperature;BMP_pressure;BME280_temperature;BME280_humidity;BME280_pressure;Samples;Min_cycle;Max_cycle;Signal;HPM_P1;HPM_P2
2022/01/07 00:01:30;;;;;;;35.45;17.05;;;;;;;7.67;63.31;100745.66;4903981;28;121005;-93
2022/01/07 00:03:56;;;;;;;36.25;16.92;;;;;;;7.82;63.72;100752.28;4892829;28;122735;-94
2022/01/07 00:06:22;;;;;;;35.28;17.23;;;;;;;7.92;63.05;100772.31;4931008;28;119387;-93
2022/01/07 00:08:48;;;;;;;32.33;16.95;;;;;;;7.65;63.26;100723.47;4918201;28;121720;-93
2022/01/07 00:11:16;;;;;;;36.13;18.33;;;;;;;7.66;63.63;100725.78;4905533;28;118836;-94
2022/01/07 00:13:42;;;;;;;34.83;17.30;;;;;;;7.72;64.01;100727.97;4902117;28;123571;-92
2022/01/07 00:16:08;;;;;;;39.10;18.63;;;;;;;7.91;63.42;100749.72;4914712;28;121972;-93
2022/01/07 00:18:34;;;;;;;36.35;17.30;;;;;;;7.80;62.95;100729.31;4917350;28;119073;-93
2022/01/07 00:21:00;;;;;;;35.13;16.70;;;;;;;8.00;62.74;100752.56;4890588;28;121816;-94
2022/01/07 00:23:26;;;;;;;39.88;17.00;;;;;;;7.81;62.79;100715.25;4911312;28;123064;-94
2022/01/07 00:25:52;;;;;;;43.58;18.73;;;;;;;7.88;62.38;100726.00;4897880;28;119311;-92
2022/01/07 00:28:18;;;;;;;36.92;17.27;;;;;;;7.95;62.41;100720.34;4930825;28;122014;-93
2022/01/07 00:30:45;;;;;;;37.13;16.83;;;;;;;8.06;62.04;100738.41;4880558;28;122885;-93
2022/01/07 00:33:11;;;;;;;40.15;18.30;;;;;;;7.85;62.52;100693.31;4933897;28;118557;-92
2022/01/07 00:35:39;;;;;;;39.55;17.88;;;;;;;7.80;62.08;100680.16;4902853;28;124789;-94
2022/01/07 00:38:06;;;;;;;46.10;18.02;;;;;;;8.01;61.79;100710.41;4902988;28;119371;-92
2022/01/07 00:40:35;;;;;;;36.20;18.45;;;;;;;7.89;62.12;100694.75;4904897;28;122315;-93
2022/01/07 00:43:01;;;;;;;34.28;19.40;;;;;;;7.87;61.78;100680.75;4893628;28;121356;-95
2022/01/07 00:45:27;;;;;;;38.83;19.83;;;;;;;7.91;62.03;100688.84;4897134;28;118646;-93
2022/01/07 00:47:55;;;;;;;38.45;21.60;;;;;;;7.86;61.94;100687.41;4905701;28;121086;-93
2022/01/07 00:50:22;;;;;;;33.97;19.30;;;;;;;7.74;62.52;100674.47;4934361;28;119393;-94
2022/01/07 00:52:48;;;;;;;42.72;21.00;;;;;;;8.00;62.49;100710.84;4909065;28;120822;-95
2022/01/07 00:55:14;;;;;;;45.33;21.67;;;;;;;7.93;62.64;100687.22;4906035;28;123346;-93
2022/01/07 00:57:40;;;;;;;40.45;21.23;;;;;;;7.93;62.55;100681.75;4912477;28;118595;-94
2022/01/07 01:00:09;;;;;;;43.72;21.17;;;;;;;8.01;62.48;100687.78;4910777;28;123455;-92
2022/01/07 01:02:35;;;;;;;38.33;20.88;;;;;;;7.96;62.51;100683.63;4905963;28;124130;-93
2022/01/07 01:05:01;;;;;;;35.92;20.52;;;;;;;7.99;62.03;100682.75;4898361;28;119501;-93
2022/01/07 01:07:27;;;;;;;45.20;21.65;;;;;;;7.82;61.99;100659.44;4894934;28;120738;-93
2022/01/07 01:09:52;;;;;;;44.85;21.85;;;;;;;7.76;62.47;100639.31;4922662;28;119265;-93
2022/01/07 01:12:18;;;;;;;39.38;22.38;;;;;;;7.99;62.41;100680.03;4909637;28;121222;-95
2022/01/07 01:14:44;;;;;;;41.03;22.15;;;;;;;7.95;62.29;100662.22;4926535;28;122202;-93
2022/01/07 01:17:10;;;;;;;41.83;22.40;;;;;;;7.69;62.17;100628.59;4898083;28;118881;-93
2022/01/07 01:19:37;;;;;;;39.55;22.33;;;;;;;7.80;62.33;100650.91;4909630;28;122150;-94
2022/01/07 01:22:03;;;;;;;45.90;22.52;;;;;;;7.58;62.36;100609.00;4909335;28;123123;-93
2022/01/07 01:24:29;;;;;;;41.83;24.13;;;;;;;7.92;62.06;100663.84;4928376;28;119453;-93
2022/01/07 01:26:55;;;;;;;39.08;23.42;;;;;;;7.85;62.80;100650.38;4909813;28;120738;-92
2022/01/07 01:29:22;;;;;;;42.63;23.50;;;;;;;7.51;62.10;100599.03;4929516;28;119000;-94
2022/01/07 01:31:49;;;;;;;43.85;27.67;;;;;;;7.61;62.61;100610.88;4921625;28;119642;-93
2022/01/07 01:34:15;;;;;;;50.88;24.33;;;;;;;7.48;62.10;100590.94;4885801;28;122944;-94
2022/01/07 01:36:41;;;;;;;41.92;25.10;;;;;;;7.87;63.09;100656.19;4900181;28;118713;-92
2022/01/07 01:39:08;;;;;;;43.55;25.98;;;;;;;7.57;63.10;100607.44;4909248;28;121001;-95
2022/01/07 01:41:33;;;;;;;42.60;24.67;;;;;;;7.87;62.88;100644.50;4898022;28;121597;-94
2022/01/07 01:43:59;;;;;;;42.05;24.10;;;;;;;7.85;63.14;100639.47;4889211;28;118666;-92
2022/01/07 01:46:25;;;;;;;44.55;24.15;;;;;;;7.66;62.81;100599.44;4907078;28;120326;-93
2022/01/07 01:48:54;;;;;;;43.65;24.30;;;;;;;7.93;62.86;100637.28;4891732;28;124567;-91
2022/01/07 01:51:20;;;;;;;44.88;23.70;;;;;;;7.90;62.28;100621.78;4921980;28;119877;-94
2022/01/07 01:53:48;;;;;;;47.28;25.25;;;;;;;7.84;62.07;100616.09;4923701;28;120184;-93
2022/01/07 01:56:14;;;;;;;45.00;24.33;;;;;;;7.84;62.35;100626.25;4911206;28;118600;-93
2022/01/07 01:58:39;;;;;;;41.60;24.50;;;;;;;7.38;62.54;100555.34;4907905;28;120876;-94
2022/01/07 02:01:05;;;;;;;41.65;25.20;;;;;;;7.60;63.03;100585.53;4924683;28;120314;-93
2022/01/07 02:03:33;;;;;;;47.88;27.95;;;;;;;7.82;63.99;100625.91;4913780;28;119032;-94
2022/01/07 02:05:59;;;;;;;47.67;25.98;;;;;;;7.65;64.20;100578.78;4901937;28;121918;-94
2022/01/07 02:08:25;;;;;;;43.60;25.05;;;;;;;7.29;63.18;100525.16;4924791;28;120065;-93
2022/01/07 02:10:51;;;;;;;43.38;25.98;;;;;;;7.23;63.32;100517.94;4928896;28;118939;-94
2022/01/07 02:13:17;;;;;;;39.28;25.15;;;;;;;7.40;63.16;100535.78;4913270;28;120903;-91
2022/01/07 02:15:43;;;;;;;44.83;24.42;;;;;;;7.62;62.96;100568.72;4922405;28;119131;-93
2022/01/07 02:18:12;;;;;;;43.30;24.58;;;;;;;7.55;62.84;100547.06;4899541;28;121061;-93
2022/01/07 02:20:38;;;;;;;41.97;24.10;;;;;;;7.78;62.57;100568.66;4884270;28;122121;-93
2022/01/07 02:23:03;;;;;;;36.83;23.42;;;;;;;7.83;62.91;100581.78;4908078;28;118648;-93
2022/01/07 02:25:34;;;;;;;42.88;24.42;;;;;;;7.76;62.51;100560.13;4917099;28;118571;-94
2022/01/07 02:27:59;;;;;;;42.63;24.60;;;;;;;7.83;62.85;100575.56;4927451;28;120129;-93
2022/01/07 02:30:29;;;;;;;41.35;24.38;;;;;;;7.84;62.23;100575.13;4923261;28;119269;-94
2022/01/07 02:32:56;;;;;;;38.10;24.45;;;;;;;7.90;62.58;100573.38;4904233;28;121887;-94
2022/01/07 02:35:28;;;;;;;43.50;24.67;;;;;;;7.74;62.75;100548.88;4937030;28;121405;-93
2022/01/07 02:37:54;;;;;;;47.08;26.02;;;;;;;7.89;63.15;100562.91;4885385;28;121691;-94
2022/01/07 02:40:20;;;;;;;38.17;24.88;;;;;;;7.88;63.44;100553.94;4903215;28;122138;-93
2022/01/07 02:42:46;;;;;;;39.40;25.02;;;;;;;7.66;63.13;100522.97;4905583;28;119508;-93
2022/01/07 02:45:15;;;;;;;40.08;24.70;;;;;;;7.89;63.09;100558.19;4919718;28;118813;-94
2022/01/07 02:47:55;;;;;;;43.97;26.02;;;;;;;7.88;63.86;100543.00;4918635;28;122156;-94
2022/01/07 02:50:27;;;;;;;45.10;25.58;;;;;;;7.93;63.60;100547.94;4886363;28;119312;-93
2022/01/07 02:52:53;;;;;;;47.72;29.27;;;;;;;7.93;65.00;100538.97;4905373;28;120709;-92
2022/01/07 02:55:19;;;;;;;50.92;27.90;;;;;;;7.89;64.60;100538.31;4923006;28;120877;-93
2022/01/07 02:57:45;;;;;;;44.00;25.60;;;;;;;7.72;64.10;100509.56;4904770;28;119753;-93
2022/01/07 03:00:12;;;;;;;46.53;27.08;;;;;;;7.81;64.69;100532.31;4916668;28;121515;-93
2022/01/07 03:02:38;;;;;;;46.20;27.02;;;;;;;7.77;64.70;100531.63;4903226;28;119385;-93
2022/01/07 03:05:05;;;;;;;48.95;26.20;;;;;;;7.82;64.59;100528.38;4911339;28;122182;-94
2022/01/07 03:07:31;;;;;;;45.13;26.42;;;;;;;7.35;64.44;100457.19;4908544;28;121831;-93
2022/01/07 03:09:56;;;;;;;46.30;28.17;;;;;;;7.52;65.07;100488.66;4925774;28;118568;-93
2022/01/07 03:12:25;;;;;;;51.25;32.03;;;;;;;7.74;66.06;100521.56;4924400;28;120459;-92
2022/01/07 03:14:51;;;;;;;46.30;26.02;;;;;;;7.63;65.42;100496.56;4910901;28;121805;-94
2022/01/07 03:17:17;;;;;;;49.60;27.98;;;;;;;7.69;65.13;100494.81;4901915;28;119629;-93
2022/01/07 03:19:43;;;;;;;46.03;28.05;;;;;;;7.66;64.62;100493.72;4925678;28;119128;-94
2022/01/07 03:22:08;;;;;;;47.65;28.98;;;;;;;7.85;64.89;100522.03;4924575;28;118628;-94
2022/01/07 03:24:34;;;;;;;60.38;36.50;;;;;;;7.84;66.10;100512.31;4928073;28;119273;-93
2022/01/07 03:26:59;;;;;;;49.58;28.35;;;;;;;7.70;64.86;100493.63;4928095;28;121289;-92
2022/01/07 03:29:25;;;;;;;45.75;27.95;;;;;;;7.27;65.11;100432.06;4899920;28;118606;-95
2022/01/07 03:31:51;;;;;;;45.60;27.15;;;;;;;7.69;64.81;100492.84;4903805;28;118963;-93
2022/01/07 03:34:17;;;;;;;46.72;28.85;;;;;;;7.38;65.21;100446.19;4922578;28;121733;-93
2022/01/07 03:36:42;;;;;;;51.28;30.30;;;;;;;7.58;65.24;100458.88;4921447;28;118928;-91
2022/01/07 03:39:08;;;;;;;47.60;30.63;;;;;;;7.59;65.83;100454.94;4907172;28;121001;-94
2022/01/07 03:41:34;;;;;;;43.95;27.63;;;;;;;7.53;65.63;100456.66;4903973;28;119222;-93
2022/01/07 03:44:00;;;;;;;52.63;31.52;;;;;;;7.62;65.82;100465.00;4908365;28;121192;-92
2022/01/07 03:46:26;;;;;;;47.58;29.30;;;;;;;7.56;65.25;100445.66;4941522;28;119804;-93
2022/01/07 03:48:54;;;;;;;47.67;29.35;;;;;;;7.59;65.11;100457.69;4908683;28;118713;-93
2022/01/07 03:51:20;;;;;;;51.55;31.83;;;;;;;7.55;65.71;100457.00;4894145;28;122003;-93
2022/01/07 03:53:45;;;;;;;47.75;29.00;;;;;;;7.55;65.63;100457.00;4908552;28;121726;-94
2022/01/07 03:56:17;;;;;;;51.80;30.63;;;;;;;7.35;65.52;100432.66;4901117;28;118755;-93
2022/01/07 03:58:44;;;;;;;47.08;28.83;;;;;;;7.09;65.23;100379.97;4885343;28;121083;-93
2022/01/07 04:01:10;;;;;;;44.58;28.95;;;;;;;7.13;65.12;100380.66;4928028;28;121429;-93
2022/01/07 04:03:35;;;;;;;45.45;28.02;;;;;;;7.37;64.63;100428.28;4891140;28;120976;-94
2022/01/07 04:06:03;;;;;;;44.85;30.10;;;;;;;7.16;65.30;100398.88;4901026;28;122747;-92
2022/01/07 04:08:29;;;;;;;47.15;30.50;;;;;;;7.26;66.23;100411.44;4898477;28;118547;-93
2022/01/07 04:10:55;;;;;;;41.58;26.30;;;;;;;7.04;65.52;100384.00;4893527;28;120660;-94
2022/01/07 04:13:24;;;;;;;41.20;27.15;;;;;;;7.23;66.02;100417.75;4905586;28;122160;-93
2022/01/07 04:15:49;;;;;;;40.10;26.98;;;;;;;7.01;65.80;100373.19;4892728;28;118545;-94
2022/01/07 04:18:18;;;;;;;44.22;27.55;;;;;;;7.21;66.06;100397.56;4901003;28;120687;-94
2022/01/07 04:20:44;;;;;;;44.42;28.05;;;;;;;6.99;66.21;100370.91;4921742;28;121387;-93
2022/01/07 04:23:10;;;;;;;43.95;28.40;;;;;;;7.18;66.41;100399.22;4910510;28;118487;-94
2022/01/07 04:25:35;;;;;;;42.88;27.35;;;;;;;7.23;66.17;100408.81;4883317;28;121875;-93
2022/01/07 04:28:05;;;;;;;44.33;27.95;;;;;;;7.15;65.83;100404.78;4907395;28;120122;-94
2022/01/07 04:30:40;;;;;;;42.60;27.67;;;;;;;7.14;66.09;100400.53;4913083;28;119416;-93
2022/01/07 04:33:07;;;;;;;45.33;27.42;;;;;;;6.91;66.32;100372.31;4894924;28;121991;-93
2022/01/07 04:35:37;;;;;;;45.20;26.63;;;;;;;7.00;66.18;100383.34;4924905;28;119448;-93
2022/01/07 04:38:04;;;;;;;39.92;26.13;;;;;;;6.82;65.84;100355.81;4906505;28;120955;-94
2022/01/07 04:40:32;;;;;;;41.10;27.27;;;;;;;6.96;65.75;100365.56;4898520;28;121600;-94
2022/01/07 04:42:58;;;;;;;43.60;28.45;;;;;;;7.03;66.21;100362.63;4921223;28;120910;-93
2022/01/07 04:45:24;;;;;;;42.95;27.92;;;;;;;6.70;65.70;100308.25;4915612;28;121210;-95
2022/01/07 04:47:56;;;;;;;44.55;27.88;;;;;;;6.96;65.61;100343.75;4918512;28;119283;-93
2022/01/07 04:50:22;;;;;;;42.75;28.33;;;;;;;7.21;65.90;100373.03;4937191;28;119528;-93
2022/01/07 04:52:49;;;;;;;49.40;30.30;;;;;;;7.22;65.49;100372.59;4895289;28;121734;-94
2022/01/07 04:55:24;;;;;;;45.85;29.83;;;;;;;7.26;66.12;100372.47;4915834;28;119184;-93
2022/01/07 04:57:50;;;;;;;41.30;28.17;;;;;;;7.02;65.61;100336.56;4902525;28;122150;-94
2022/01/07 05:00:17;;;;;;;42.03;27.45;;;;;;;7.16;65.05;100363.44;4908414;28;121916;-94
2022/01/07 05:02:43;;;;;;;41.42;28.50;;;;;;;7.05;66.08;100346.59;4910075;28;118947;-93
2022/01/07 05:05:10;;;;;;;42.45;29.95;;;;;;;7.23;65.59;100371.38;4901051;28;122488;-94
2022/01/07 05:07:36;;;;;;;42.55;30.20;;;;;;;7.19;65.13;100365.28;4887421;28;118627;-93
2022/01/07 05:10:11;;;;;;;43.35;29.33;;;;;;;7.22;65.34;100361.69;4911003;28;122154;-94
2022/01/07 05:12:37;;;;;;;49.28;34.05;;;;;;;7.18;65.88;100361.03;4912292;28;120649;-93
2022/01/07 05:15:05;;;;;;;96.60;53.75;;;;;;;7.14;67.69;100357.63;4905339;28;120872;-94
2022/01/07 05:17:31;;;;;;;52.00;35.60;;;;;;;6.90;67.10;100326.41;4926927;28;122036;-93
2022/01/07 05:19:57;;;;;;;49.70;32.80;;;;;;;7.15;66.26;100359.16;4894912;28;122196;-93
2022/01/07 05:22:23;;;;;;;44.10;31.88;;;;;;;6.94;66.26;100335.25;4891934;28;118580;-92
2022/01/07 05:24:49;;;;;;;52.20;36.35;;;;;;;6.93;67.02;100339.94;4912334;28;121205;-93
2022/01/07 05:27:17;;;;;;;48.40;34.60;;;;;;;6.85;67.20;100329.63;4917614;28;121820;-92
2022/01/07 05:29:45;;;;;;;42.65;32.25;;;;;;;6.99;66.29;100348.34;4909700;28;120902;-93
2022/01/07 05:32:11;;;;;;;51.72;34.17;;;;;;;6.81;66.40;100307.94;4913899;28;122030;-92
2022/01/07 05:34:40;;;;;;;42.47;30.67;;;;;;;6.82;66.03;100305.97;4909471;28;119721;-93
2022/01/07 05:37:07;;;;;;;46.22;31.15;;;;;;;7.00;65.98;100330.78;4927580;28;120313;-93
2022/01/07 05:39:33;;;;;;;46.45;33.33;;;;;;;6.94;66.09;100313.41;4928708;28;123350;-93
2022/01/07 05:41:59;;;;;;;44.75;32.03;;;;;;;7.09;65.75;100336.34;4891422;28;118465;-93
2022/01/07 05:44:25;;;;;;;41.85;31.13;;;;;;;7.00;65.86;100323.34;4886470;28;121808;-94
2022/01/07 05:46:51;;;;;;;41.88;30.85;;;;;;;6.82;65.51;100298.56;4926187;28;120371;-93
2022/01/07 05:49:17;;;;;;;48.42;34.85;;;;;;;7.09;67.25;100333.59;4917771;28;118842;-94
2022/01/07 05:51:43;;;;;;;43.75;31.38;;;;;;;7.04;66.94;100318.56;4886357;28;123199;-94
2022/01/07 05:54:09;;;;;;;40.25;29.83;;;;;;;7.14;66.74;100321.41;4936832;28;119678;-93
2022/01/07 05:56:36;;;;;;;41.00;29.83;;;;;;;6.76;65.85;100259.41;4925822;28;120751;-94
2022/01/07 05:59:02;;;;;;;48.30;34.08;;;;;;;6.73;66.48;100260.28;4902272;28;119299;-94
2022/01/07 06:01:28;;;;;;;47.55;33.60;;;;;;;6.87;66.69;100267.28;4921956;28;119207;-94
2022/01/07 06:03:57;;;;;;;39.42;29.20;;;;;;;7.04;66.45;100295.97;4920643;28;119550;-91
2022/01/07 06:06:23;;;;;;;41.92;31.98;;;;;;;7.14;66.42;100300.38;4924426;28;120345;-92
2022/01/07 06:08:48;;;;;;;40.13;29.33;;;;;;;6.92;66.13;100261.28;4899880;28;119666;-92
2022/01/07 06:11:14;;;;;;;41.08;31.25;;;;;;;6.82;66.71;100240.53;4922826;28;119248;-93
2022/01/07 06:13:40;;;;;;;39.42;27.20;;;;;;;7.19;65.75;100302.53;4928035;28;119343;-93
2022/01/07 06:16:07;;;;;;;47.85;35.38;;;;;;;7.13;66.65;100279.75;4917365;28;120145;-93
2022/01/07 06:18:33;;;;;;;47.88;31.80;;;;;;;7.10;67.22;100272.44;4906513;28;121655;-94
2022/01/07 06:20:58;;;;;;;58.03;40.47;;;;;;;7.23;67.70;100281.38;4900380;28;118655;-92
2022/01/07 06:23:24;;;;;;;36.95;27.88;;;;;;;7.20;66.89;100274.06;4921877;28;118360;-94
2022/01/07 06:25:50;;;;;;;43.85;31.30;;;;;;;7.15;66.70;100255.53;4945581;28;119722;-93
2022/01/07 06:28:17;;;;;;;37.00;27.85;;;;;;;6.95;66.70;100220.28;4937312;28;119483;-93
2022/01/07 06:30:43;;;;;;;35.75;28.60;;;;;;;7.23;66.96;100265.00;4898293;28;123301;-93
2022/01/07 06:33:09;;;;;;;45.47;32.53;;;;;;;7.29;67.54;100265.97;4902695;28;121885;-92
2022/01/07 06:35:37;;;;;;;36.25;26.02;;;;;;;7.30;66.59;100267.50;4937364;28;118515;-93
2022/01/07 06:38:06;;;;;;;34.95;25.45;;;;;;;6.88;66.33;100198.69;4905502;28;119265;-93
2022/01/07 06:40:32;;;;;;;35.63;24.77;;;;;;;7.31;66.76;100260.84;4911241;28;118973;-94
2022/01/07 06:42:57;;;;;;;31.38;24.25;;;;;;;7.35;66.17;100261.53;4902584;28;119558;-94
2022/01/07 06:45:23;;;;;;;51.13;36.70;;;;;;;7.24;67.07;100244.72;4895814;28;121577;-92
2022/01/07 06:47:49;;;;;;;31.25;24.98;;;;;;;7.34;66.86;100260.00;4903094;28;118729;-93
2022/01/07 06:50:14;;;;;;;36.45;27.50;;;;;;;7.39;66.90;100259.44;4920034;28;119365;-94
2022/01/07 06:52:43;;;;;;;33.53;26.80;;;;;;;7.38;66.70;100271.56;4897876;28;122001;-93
2022/01/07 06:55:09;;;;;;;35.03;25.83;;;;;;;6.92;66.77;100190.41;4917879;28;120367;-94
2022/01/07 06:57:34;;;;;;;31.95;23.75;;;;;;;7.05;66.30;100218.41;4908565;28;123103;-93
2022/01/07 07:00:00;;;;;;;33.55;25.52;;;;;;;7.01;66.25;100220.50;4935735;28;119300;-93
2022/01/07 07:02:26;;;;;;;29.92;23.00;;;;;;;7.26;65.89;100253.22;4932916;28;120847;-94
2022/01/07 07:04:51;;;;;;;29.13;23.08;;;;;;;7.32;66.46;100262.38;4902630;28;121740;-93
2022/01/07 07:07:17;;;;;;;31.80;24.45;;;;;;;7.19;66.53;100242.53;4905061;28;119291;-93
2022/01/07 07:09:46;;;;;;;27.15;21.10;;;;;;;7.42;66.23;100268.72;4910392;28;121028;-93
2022/01/07 07:12:13;;;;;;;24.67;21.25;;;;;;;7.09;65.81;100219.06;4909209;28;120412;-94
2022/01/07 07:14:38;;;;;;;25.95;20.52;;;;;;;7.36;65.53;100260.31;4907031;28;119893;-94
2022/01/07 07:17:05;;;;;;;26.38;23.20;;;;;;;7.00;66.58;100208.06;4907294;28;121508;-93
2022/01/07 07:19:31;;;;;;;29.50;22.63;;;;;;;7.13;66.39;100227.16;4908508;28;118414;-93
2022/01/07 07:21:57;;;;;;;24.67;21.48;;;;;;;7.34;66.20;100261.97;4915768;28;122146;-94
2022/01/07 07:24:23;;;;;;;24.95;21.63;;;;;;;7.44;66.07;100266.31;4907700;28;122874;-93
2022/01/07 07:26:48;;;;;;;28.48;22.58;;;;;;;7.24;66.18;100231.06;4915732;28;119779;-92
2022/01/07 07:29:14;;;;;;;27.88;23.27;;;;;;;7.48;nan;100260.72;4932383;28;119284;-93
2022/01/07 07:31:47;;;;;;;28.42;24.25;;;;;;;7.26;65.80;100227.91;4935179;28;120348;-93
2022/01/07 07:36:42;;;;;;;28.10;23.02;;;;;;;7.09;65.63;100205.44;4928926;28;119677;-92
2022/01/07 07:39:09;;;;;;;30.60;24.38;;;;;;;7.16;65.62;100207.94;4913792;28;118568;-93
2022/01/07 07:41:37;;;;;;;32.30;26.10;;;;;;;7.09;65.84;100206.19;4914157;28;120432;-94
2022/01/07 07:44:04;;;;;;;49.40;35.92;;;;;;;7.46;67.17;100269.34;4890767;28;121782;-93
2022/01/07 07:46:31;;;;;;;29.70;25.13;;;;;;;7.07;66.93;100219.50;4897201;28;119385;-93
2022/01/07 07:49:05;;;;;;;27.63;24.45;;;;;;;7.38;66.22;100268.81;4925420;28;121041;-93
2022/01/07 07:51:31;;;;;;;;;;;;;;;7.46;66.00;100282.22;4897887;28;122889;-93
2022/01/07 07:53:57;;;;;;;25.25;22.15;;;;;;;7.45;66.48;100275.25;4908400;28;119635;-93
2022/01/07 07:56:25;;;;;;;30.33;25.10;;;;;;;7.48;66.40;100283.31;4908391;28;122215;-92
2022/01/07 07:58:51;;;;;;;25.42;22.67;;;;;;;7.45;65.75;100280.72;4917860;28;122910;-94
2022/01/07 08:01:17;;;;;;;25.52;21.02;;;;;;;7.35;65.37;100266.22;4899518;28;121984;-93
2022/01/07 08:03:45;;;;;;;27.15;23.20;;;;;;;7.28;65.49;100259.00;4904161;28;121677;-93
2022/01/07 08:06:10;;;;;;;25.85;23.08;;;;;;;7.18;65.71;100246.47;4912776;28;119343;-94
2022/01/07 08:08:36;;;;;;;28.55;22.95;;;;;;;7.10;65.78;100223.34;4898517;28;120669;-94
2022/01/07 08:11:05;;;;;;;25.38;21.73;;;;;;;7.21;65.58;100245.59;4894027;28;121478;-94
2022/01/07 08:15:58;;;;;;;27.77;23.23;;;;;;;7.21;65.76;100255.72;4924737;28;119248;-94
2022/01/07 08:16:19;;;;;;;40.53;31.10;;;;;;;7.29;66.64;100273.41;4922786;28;120846;-92
2022/01/07 08:18:53;;;;;;;30.40;24.23;;;;;;;7.33;66.51;100276.78;4912690;28;121112;-94
2022/01/07 08:21:20;;;;;;;28.35;24.38;;;;;;;7.21;66.25;100256.50;4920430;28;119970;-92
2022/01/07 08:23:46;;;;;;;26.65;23.73;;;;;;;7.22;66.36;100249.06;4904369;28;121948;-94
2022/01/07 08:26:14;;;;;;;32.28;27.90;;;;;;;7.34;67.00;100276.38;4911613;28;118900;-94
2022/01/07 08:29:06;;;;;;;28.60;24.05;;;;;;;7.36;66.93;100278.66;4923893;28;121005;-93
2022/01/07 08:36:40;;;;;;;;;;;;;;;7.42;65.46;100265.97;4960744;28;119420;-93
2022/01/07 08:39:28;;;;;;;27.75;22.17;;;;;;;6.92;65.66;100184.94;4926301;28;121047;-93
2022/01/07 08:46:11;;;;;;;24.73;21.95;;;;;;;7.30;66.49;100225.81;4966622;28;118316;-93
2022/01/07 08:53:02;;;;;;;35.10;24.45;;;;;;;7.09;67.46;100189.06;4956547;28;118616;-93
2022/01/07 08:56:11;;;;;;;28.98;21.00;;;;;;;7.63;67.65;100248.16;4925514;28;123443;-93
2022/01/07 08:59:10;;;;;;;30.25;21.40;;;;;;;7.72;67.77;100247.47;4919260;28;118580;-94
2022/01/07 09:01:55;;;;;;;26.02;20.75;;;;;;;7.54;67.21;100223.47;5240571;22;120997;-93
2022/01/07 09:11:44;;;;;;;32.83;23.00;;;;;;;7.84;67.57;100243.97;4936942;28;120567;-93
2022/01/07 09:14:29;;;;;;;32.47;23.52;;;;;;;7.36;68.17;100158.59;4926545;28;123096;-93
2022/01/07 09:17:00;;;;;;;32.88;22.52;;;;;;;7.39;67.36;100153.03;4916797;28;121896;-93
2022/01/07 09:19:28;;;;;;;41.92;29.58;;;;;;;7.45;68.06;100147.00;4920847;28;122446;-94
2022/01/07 09:23:07;;;;;;;28.55;21.08;;;;;;;8.05;66.98;100240.50;4930017;28;118504;-94
2022/01/07 09:28:45;;;;;;;35.65;23.42;;;;;;;8.23;67.60;100228.94;5213685;22;120712;-94
2022/01/07 09:36:26;;;;;;;32.28;23.58;;;;;;;8.16;68.09;100224.47;4916919;28;119100;-94
2022/01/07 09:39:37;;;;;;;33.65;21.88;;;;;;;7.68;67.06;100157.50;4916307;28;121469;-93
2022/01/07 10:03:36;;;;;;;23.52;18.08;;;;;;;8.09;66.56;100202.13;4878729;28;120214;-93
2022/01/07 10:06:41;;;;;;;24.42;19.15;;;;;;;8.35;67.53;100230.13;4867906;28;121124;-92
2022/01/07 10:09:27;;;;;;;25.33;19.10;;;;;;;7.86;67.11;100156.91;4847813;28;122397;-93
2022/01/07 10:12:10;;;;;;;29.65;21.50;;;;;;;7.97;67.46;100163.50;4858395;28;118643;-93
2022/01/07 10:15:13;;;;;;;26.83;20.08;;;;;;;8.08;66.63;100181.47;4857725;28;122616;-94
2022/01/07 10:18:04;;;;;;;25.00;18.30;;;;;;;7.88;66.60;100143.56;4864015;28;118853;-92
2022/01/07 10:20:32;;;;;;;23.27;17.30;;;;;;;8.19;66.26;100190.03;4876403;28;121057;-94
2022/01/07 10:27:46;;;;;;;26.80;17.95;;;;;;;8.13;66.60;100159.81;4881965;28;118424;-94
2022/01/07 10:31:28;;;;;;;24.23;19.07;;;;;;;7.99;67.04;100133.00;4874312;28;119024;-94
2022/01/07 10:34:18;;;;;;;26.20;18.23;;;;;;;8.12;66.07;100149.34;4882783;28;119237;-95
2022/01/07 10:36:55;;;;;;;30.30;19.35;;;;;;;8.45;66.49;100190.69;4868011;28;118463;-93
2022/01/07 10:39:32;;;;;;;26.02;18.98;;;;;;;8.32;65.90;100158.72;4867483;28;122487;-93
2022/01/07 10:42:00;;;;;;;38.03;24.00;;;;;;;8.50;66.95;100179.16;4865310;28;118437;-92
2022/01/07 10:44:26;;;;;;;28.63;19.98;;;;;;;8.63;66.56;100200.97;4866020;28;120920;-93
2022/01/07 10:46:53;;;;;;;27.50;19.60;;;;;;;8.21;66.45;100133.75;4874819;28;122904;-93
2022/01/07 10:49:31;;;;;;;30.50;22.42;;;;;;;8.42;66.22;100162.28;4865937;28;118536;-93
2022/01/07 10:51:56;;;;;;;27.63;20.83;;;;;;;8.58;67.04;100170.28;4885804;28;119646;-93
2022/01/07 10:54:22;;;;;;;31.38;20.17;;;;;;;8.49;66.82;100142.88;4886673;28;120175;-94
2022/01/07 10:56:48;;;;;;;30.30;20.70;;;;;;;8.52;nan;100142.00;4881209;28;118512;-94
2022/01/07 10:59:15;;;;;;;29.08;20.90;;;;;;;8.38;65.65;100120.66;4880742;28;120937;-94
2022/01/07 11:01:50;;;;;;;28.38;20.88;;;;;;;8.37;65.57;100110.19;4878764;28;122905;-92
2022/01/07 11:04:30;;;;;;;37.00;22.98;;;;;;;8.69;65.85;100156.19;4864701;28;121041;-94
2022/01/07 11:07:00;;;;;;;30.52;20.60;;;;;;;8.56;65.87;100128.97;4831902;28;123048;-93
2022/01/07 11:09:26;;;;;;;32.15;20.23;;;;;;;8.40;65.84;100088.19;4872184;28;118643;-93
2022/01/07 11:12:06;;;;;;;46.58;29.23;;;;;;;8.56;67.44;100109.81;4871654;28;121093;-94
2022/01/07 11:14:35;;;;;;;33.45;20.10;;;;;;;8.66;66.25;100128.97;4864836;28;121318;-94
2022/01/07 11:17:08;;;;;;;38.05;22.85;;;;;;;8.49;66.03;100092.91;5296902;22;121396;-95
2022/01/07 11:19:37;;;;;;;31.97;20.47;;;;;;;8.51;65.92;100094.00;4936786;28;120931;-93
2022/01/07 11:22:04;;;;;;;33.75;21.90;;;;;;;8.74;66.58;100119.28;4925670;28;121919;-95
2022/01/07 11:24:36;;;;;;;37.15;19.67;;;;;;;9.09;66.43;100167.13;4914265;28;118621;-94
2022/01/07 11:27:04;;;;;;;34.17;20.88;;;;;;;8.84;65.53;100126.31;4939095;28;120350;-95
2022/01/07 11:33:07;;;;;;;;;;;;;;;;;;;;;
2022/01/07 11:42:41;;;;;;;30.77;19.08;;;;;;;8.73;66.11;100084.94;5241309;22;120695;-94
2022/01/07 11:48:57;;;;;;;29.42;17.42;;;;;;;8.96;65.37;100108.25;5069360;22;118659;-94
2022/01/07 11:56:14;;;;;;;27.15;17.45;;;;;;;9.22;66.31;100136.88;4915049;28;118577;-93
2022/01/07 11:59:00;;;;;;;27.85;17.10;;;;;;;8.82;66.05;100076.78;4896276;28;119535;-94
2022/01/07 12:02:18;;;;;;;29.20;18.23;;;;;;;9.04;66.03;100091.13;4889969;28;121449;-94
2022/01/07 12:11:04;;;;;;;29.85;18.58;;;;;;;9.47;65.60;100133.13;4821755;29;118585;-94
2022/01/07 12:23:37;;;;;;;32.25;17.17;;;;;;;9.39;65.85;100101.78;4915337;28;119133;-94
2022/01/07 12:29:49;;;;;;;35.20;18.52;;;;;;;9.37;65.17;100090.53;5466694;22;120734;-95
2022/01/07 12:32:45;;;;;;;39.45;19.02;;;;;;;9.57;65.21;100106.50;4939830;28;118531;-94
2022/01/07 15:03:39;;;;;;;31.60;14.55;;;;;;;10.11;63.91;100130.31;5712532;23;121318;-95
2022/01/07 15:11:57;;;;;;;31.00;14.82;;;;;;;9.68;62.96;100035.59;5102715;23;120653;-96
2022/01/07 15:14:33;;;;;;;32.85;15.32;;;;;;;9.92;63.68;100082.25;5037623;23;120335;-96
2022/01/07 15:16:59;;;;;;;35.85;18.23;;;;;;;9.79;65.25;100063.28;4860265;28;120303;-96
2022/01/07 15:19:35;;;;;;;29.15;15.05;;;;;;;10.13;64.00;100098.50;4844247;28;119241;-96
2022/01/07 15:28:15;;;;;;;29.42;15.68;;;;;;;10.28;63.84;100126.06;4854420;28;120980;-94
2022/01/07 15:30:42;;;;;;;33.85;15.55;;;;;;;10.05;63.55;100102.03;4863169;28;119308;-96
2022/01/07 15:33:08;;;;;;;23.45;13.75;;;;;;;9.75;63.11;100052.47;4799213;28;118489;-93
2022/01/07 15:35:43;;;;;;;23.40;13.63;;;;;;;9.66;62.56;100057.19;4824834;29;119531;-94
2022/01/07 15:38:36;;;;;;;;;;;;;;;;;;;;;
2022/01/07 15:41:10;;;;;;;26.23;13.05;;;;;;;9.82;63.01;100087.75;4827044;29;118613;-94